createdAt,value
2023-03-27T00:01:25.951Z,38.67
2023-03-27T00:03:53.436Z,39.32
2023-03-27T00:06:20.789Z,39.41
2023-03-27T00:08:51.382Z,39.92
2023-03-27T00:11:21.735Z,39.21
2023-03-27T00:13:51.305Z,38.66
2023-03-27T00:16:20.025Z,38.86
2023-03-27T00:18:46.785Z,39.09
2023-03-27T00:21:13.463Z,39.45
2023-03-27T00:23:40.511Z,39.12
2023-03-27T00:26:07.215Z,39.34
2023-03-27T00:28:34.245Z,40.03
2023-03-27T00:31:01.038Z,40.24
2023-03-27T00:33:27.674Z,40.78
2023-03-27T00:35:54.446Z,40.63
2023-03-27T00:38:21.486Z,41.16
2023-03-27T00:40:49.234Z,41.08
2023-03-27T00:43:21.018Z,41.00
2023-03-27T00:45:48.123Z,40.87
2023-03-27T00:48:15.130Z,40.47
2023-03-27T00:50:43.436Z,40.20
2023-03-27T00:53:13.135Z,40.45
2023-03-27T00:55:42.377Z,40.26
2023-03-27T00:58:21.927Z,40.49
2023-03-27T01:00:51.596Z,40.38
2023-03-27T01:03:19.108Z,40.94
2023-03-27T01:05:46.267Z,41.31
2023-03-27T01:08:14.344Z,40.79
2023-03-27T01:10:44.286Z,40.82
2023-03-27T01:13:20.880Z,40.99
2023-03-27T01:15:58.579Z,40.63
2023-03-27T01:18:36.363Z,40.46
2023-03-27T01:21:36.098Z,40.20
2023-03-27T01:24:08.465Z,40.34
2023-03-27T01:27:01.941Z,40.35
2023-03-27T01:29:56.540Z,40.72
2023-03-27T01:32:44.866Z,40.80
2023-03-27T01:35:33.476Z,40.94
2023-03-27T01:38:20.647Z,41.51
2023-03-27T01:41:12.031Z,41.33
2023-03-27T01:43:56.660Z,41.31
2023-03-27T01:46:26.960Z,41.42
2023-03-27T01:49:01.390Z,41.47
2023-03-27T01:51:36.859Z,41.51
2023-03-27T01:54:09.694Z,41.27
2023-03-27T01:56:51.722Z,41.50
2023-03-27T01:59:21.658Z,41.96
2023-03-27T02:01:54.236Z,41.45
2023-03-27T02:04:26.550Z,41.19
2023-03-27T02:07:02.081Z,41.25
2023-03-27T02:09:35.533Z,40.91
2023-03-27T02:12:19.460Z,40.88
2023-03-27T02:14:51.508Z,40.63
2023-03-27T02:17:20.459Z,40.91
2023-03-27T02:19:51.578Z,40.79
2023-03-27T02:22:18.589Z,41.17
2023-03-27T02:24:49.011Z,41.46
2023-03-27T02:27:42.591Z,41.32
2023-03-27T02:30:16.309Z,41.02
2023-03-27T02:32:49.147Z,40.94
2023-03-27T02:35:23.427Z,40.86
2023-03-27T02:38:25.435Z,40.51
2023-03-27T02:41:09.404Z,40.61
2023-03-27T02:44:06.065Z,40.10
2023-03-27T02:47:07.525Z,40.17
2023-03-27T02:49:38.735Z,40.46
2023-03-27T02:52:12.458Z,40.08
2023-03-27T02:54:43.541Z,40.08
2023-03-27T02:57:11.678Z,39.39
2023-03-27T03:00:00.648Z,40.51
2023-03-27T03:02:33.900Z,39.93
2023-03-27T03:05:12.818Z,39.49
2023-03-27T03:07:40.177Z,39.68
2023-03-27T03:10:09.679Z,39.63
2023-03-27T03:12:36.471Z,39.52
2023-03-27T03:15:03.038Z,39.42
2023-03-27T03:17:30.805Z,39.69
2023-03-27T03:19:57.383Z,39.25
2023-03-27T03:22:25.514Z,39.94
2023-03-27T03:24:52.890Z,39.90
2023-03-27T03:27:24.098Z,39.84
2023-03-27T03:29:59.294Z,41.40
2023-03-27T03:32:27.600Z,41.29
2023-03-27T03:34:54.318Z,40.91
2023-03-27T03:37:20.964Z,40.90
2023-03-27T03:39:47.467Z,40.96
2023-03-27T03:42:22.629Z,42.35
2023-03-27T03:44:51.598Z,42.58
2023-03-27T03:47:20.367Z,42.96
2023-03-27T03:49:47.029Z,43.21
2023-03-27T03:52:13.990Z,42.89
2023-03-27T03:54:40.465Z,43.12
2023-03-27T03:57:08.231Z,43.08
2023-03-27T03:59:34.959Z,43.48
2023-03-27T04:02:30.035Z,43.04
2023-03-27T04:05:10.560Z,43.37
2023-03-27T04:07:40.065Z,42.86
2023-03-27T04:10:18.969Z,43.03
2023-03-27T04:12:49.412Z,43.66
2023-03-27T04:15:23.784Z,43.41
2023-03-27T04:18:09.097Z,43.17
2023-03-27T04:20:37.502Z,43.54
2023-03-27T04:23:08.166Z,43.00
2023-03-27T04:25:38.154Z,42.80
2023-03-27T04:28:05.330Z,43.53
2023-03-27T04:30:38.820Z,43.52
2023-03-27T04:33:46.522Z,43.26
2023-03-27T04:36:45.171Z,43.20
2023-03-27T04:39:16.416Z,43.29
2023-03-27T04:41:49.207Z,44.10
2023-03-27T04:44:19.156Z,44.30
2023-03-27T04:46:50.095Z,43.80
2023-03-27T04:49:20.208Z,43.44
2023-03-27T04:52:09.799Z,43.86
2023-03-27T04:54:36.500Z,43.46
2023-03-27T04:57:03.721Z,43.36
2023-03-27T04:59:31.913Z,44.18
2023-03-27T05:02:31.282Z,44.09
2023-03-27T05:05:03.282Z,43.63
2023-03-27T05:07:32.922Z,43.73
2023-03-27T05:10:02.078Z,43.37
2023-03-27T05:12:29.334Z,43.74
2023-03-27T05:15:00.587Z,44.22
2023-03-27T05:17:40.775Z,43.54
2023-03-27T05:20:11.918Z,43.20
2023-03-27T05:22:38.946Z,43.09
2023-03-27T05:25:17.080Z,42.69
2023-03-27T05:27:47.838Z,42.74
2023-03-27T05:30:17.676Z,43.02
2023-03-27T05:32:52.017Z,42.95
2023-03-27T05:35:26.207Z,43.00
2023-03-27T05:37:55.047Z,43.53
2023-03-27T05:40:36.062Z,43.25
2023-03-27T05:43:03.578Z,43.24
2023-03-27T05:45:32.471Z,43.48
2023-03-27T05:48:01.692Z,43.32
2023-03-27T05:50:33.202Z,42.97
2023-03-27T05:53:01.587Z,42.84
2023-03-27T05:55:34.843Z,42.02
2023-03-27T05:58:01.833Z,41.91
2023-03-27T06:00:31.959Z,41.24
2023-03-27T06:03:01.276Z,39.76
2023-03-27T06:05:48.915Z,37.43
2023-03-27T06:08:15.685Z,39.50
2023-03-27T06:10:43.758Z,38.56
2023-03-27T06:13:20.018Z,37.39
2023-03-27T06:16:00.386Z,37.40
2023-03-27T06:18:58.955Z,37.60
2023-03-27T06:21:26.068Z,38.63
2023-03-27T06:23:58.147Z,37.08
2023-03-27T06:26:28.320Z,32.08
2023-03-27T06:28:56.281Z,28.68
2023-03-27T06:31:23.293Z,25.83
2023-03-27T06:34:01.284Z,24.07
2023-03-27T06:37:00.081Z,22.93
2023-03-27T06:39:28.492Z,21.88
2023-03-27T06:41:56.197Z,22.18
2023-03-27T06:44:44.355Z,25.13
2023-03-27T06:47:36.393Z,28.93
2023-03-27T06:50:35.285Z,32.66
2023-03-27T06:53:03.076Z,33.28
2023-03-27T06:55:43.838Z,34.19
2023-03-27T06:58:14.831Z,35.50
2023-03-27T07:00:41.511Z,36.15
2023-03-27T07:03:18.394Z,36.65
2023-03-27T07:05:58.329Z,36.54
2023-03-27T07:08:27.970Z,36.22
2023-03-27T07:11:10.961Z,36.87
2023-03-27T07:13:43.995Z,35.84
2023-03-27T07:16:19.950Z,36.07
2023-03-27T07:18:46.598Z,33.88
2023-03-27T07:21:15.241Z,31.48
2023-03-27T07:23:41.825Z,31.52
2023-03-27T07:26:10.608Z,31.89
2023-03-27T07:29:00.965Z,30.10
2023-03-27T07:31:41.869Z,32.13
2023-03-27T07:34:15.869Z,32.24
2023-03-27T07:37:17.950Z,32.55
2023-03-27T07:40:07.120Z,34.09
2023-03-27T07:42:34.701Z,33.82
2023-03-27T07:45:04.858Z,28.77
2023-03-27T07:47:32.171Z,26.41
2023-03-27T07:49:59.190Z,24.93
2023-03-27T07:52:25.790Z,25.64
2023-03-27T07:54:56.997Z,28.13
2023-03-27T07:57:29.588Z,29.70
2023-03-27T08:00:02.894Z,31.09
2023-03-27T08:02:43.142Z,32.42
2023-03-27T08:05:11.252Z,32.95
2023-03-27T08:07:40.709Z,33.54
2023-03-27T08:10:08.102Z,33.51
2023-03-27T08:12:45.882Z,31.94
2023-03-27T08:15:12.498Z,27.90
2023-03-27T08:17:39.169Z,25.24
2023-03-27T08:20:09.473Z,23.35
2023-03-27T08:22:45.561Z,24.04
2023-03-27T08:25:38.064Z,24.21
2023-03-27T08:28:08.142Z,25.31
2023-03-27T08:30:35.449Z,26.99
2023-03-27T08:33:02.706Z,26.96
2023-03-27T08:35:29.697Z,24.79
2023-03-27T08:37:56.338Z,23.39
2023-03-27T08:40:37.790Z,24.15
2023-03-27T08:43:33.647Z,26.29
2023-03-27T08:46:06.423Z,28.37
2023-03-27T08:48:42.279Z,29.56
2023-03-27T08:51:12.260Z,31.79
2023-03-27T08:53:46.101Z,31.84
2023-03-27T08:56:17.387Z,31.77
2023-03-27T08:58:45.999Z,32.05
2023-03-27T09:01:36.634Z,31.87
2023-03-27T09:04:25.018Z,31.06
2023-03-27T09:07:01.959Z,31.05
2023-03-27T09:10:09.163Z,30.65
2023-03-27T09:12:58.891Z,30.81
2023-03-27T09:15:42.481Z,30.88
2023-03-27T09:18:18.434Z,30.42
2023-03-27T09:20:52.683Z,30.20
2023-03-27T09:23:27.988Z,30.48
2023-03-27T09:26:21.073Z,29.55
2023-03-27T09:29:22.213Z,28.87
2023-03-27T09:31:57.691Z,28.49
2023-03-27T09:34:28.339Z,28.42
2023-03-27T09:36:55.967Z,29.15
2023-03-27T09:39:27.549Z,28.28
2023-03-27T09:42:16.721Z,28.22
2023-03-27T09:44:50.434Z,27.97
2023-03-27T09:47:34.638Z,28.09
2023-03-27T09:50:34.193Z,28.10
2023-03-27T09:53:14.338Z,26.61
2023-03-27T09:56:02.876Z,25.51
2023-03-27T09:58:43.892Z,25.98
2023-03-27T10:01:16.633Z,26.09
2023-03-27T10:03:51.379Z,26.49
2023-03-27T10:06:38.637Z,25.56
2023-03-27T10:09:34.223Z,26.08
2023-03-27T10:12:06.087Z,26.22
2023-03-27T10:14:36.658Z,25.50
2023-03-27T10:17:05.040Z,25.20
2023-03-27T10:19:38.654Z,24.64
2023-03-27T10:22:27.939Z,24.72
2023-03-27T10:24:58.605Z,24.18
2023-03-27T10:27:44.492Z,25.24
2023-03-27T10:30:36.526Z,24.75
2023-03-27T10:33:36.696Z,26.17
2023-03-27T10:36:21.380Z,25.40
2023-03-27T10:38:58.360Z,25.23
2023-03-27T10:41:41.602Z,25.69
2023-03-27T10:44:17.829Z,25.96
2023-03-27T10:46:50.347Z,26.46
2023-03-27T10:49:42.833Z,25.96
2023-03-27T10:52:22.926Z,25.16
2023-03-27T10:55:20.203Z,24.63
2023-03-27T10:57:53.636Z,24.21
2023-03-27T11:00:40.956Z,24.71
2023-03-27T11:03:30.187Z,24.73
2023-03-27T11:06:05.109Z,25.99
2023-03-27T11:08:51.233Z,25.80
2023-03-27T11:11:27.074Z,25.05
2023-03-27T11:13:56.784Z,25.79
2023-03-27T11:16:31.391Z,24.02
2023-03-27T11:19:47.747Z,24.20
2023-03-27T11:22:57.029Z,23.17
2023-03-27T11:25:46.412Z,22.46
2023-03-27T11:28:26.886Z,23.00
2023-03-27T11:31:12.150Z,24.35
2023-03-27T11:33:44.925Z,24.12
2023-03-27T11:36:20.125Z,25.18
2023-03-27T11:39:15.318Z,25.60
2023-03-27T11:41:54.747Z,25.58
2023-03-27T11:44:22.187Z,25.44
2023-03-27T11:47:28.002Z,25.86
2023-03-27T11:50:09.074Z,25.51
2023-03-27T11:52:56.788Z,23.95
2023-03-27T11:56:17.365Z,24.98
2023-03-27T11:59:04.880Z,24.03
2023-03-27T12:01:42.717Z,24.59
2023-03-27T12:04:34.309Z,24.75
2023-03-27T12:07:35.844Z,24.90
2023-03-27T12:10:29.116Z,24.16
2023-03-27T12:13:54.943Z,22.96
2023-03-27T12:16:38.948Z,23.39
2023-03-27T12:19:38.547Z,23.19
2023-03-27T12:22:54.084Z,23.73
2023-03-27T12:25:59.084Z,24.50
2023-03-27T12:29:00.861Z,23.50
2023-03-27T12:32:10.574Z,23.96
2023-03-27T12:34:56.575Z,23.81
2023-03-27T12:37:42.255Z,23.09
2023-03-27T12:40:29.282Z,22.37
2023-03-27T12:43:29.858Z,23.20
2023-03-27T12:46:25.368Z,23.38
2023-03-27T12:49:13.265Z,21.86
2023-03-27T12:51:54.772Z,24.02
2023-03-27T12:55:05.929Z,23.10
2023-03-27T12:57:52.679Z,23.37
2023-03-27T13:00:37.224Z,23.79
2023-03-27T13:03:22.796Z,23.95
2023-03-27T13:06:18.717Z,24.48
2023-03-27T13:08:54.588Z,25.24
2023-03-27T13:11:41.568Z,25.64
2023-03-27T13:14:41.524Z,25.74
2023-03-27T13:17:41.777Z,25.74
2023-03-27T13:20:24.124Z,24.93
2023-03-27T13:23:15.579Z,24.00
2023-03-27T13:25:59.661Z,23.36
2023-03-27T13:28:51.389Z,21.13
2023-03-27T13:31:43.923Z,21.32
2023-03-27T13:34:32.672Z,21.01
2023-03-27T13:37:11.414Z,20.72
2023-03-27T13:39:46.328Z,20.83
2023-03-27T13:42:21.267Z,21.05
2023-03-27T13:45:05.475Z,21.21
2023-03-27T13:48:21.276Z,20.12
2023-03-27T13:51:35.463Z,21.97
2023-03-27T13:54:12.820Z,22.22
2023-03-27T13:56:47.735Z,22.65
2023-03-27T13:59:34.414Z,24.63
2023-03-27T14:02:30.716Z,26.62
2023-03-27T14:05:12.616Z,28.89
2023-03-27T14:08:13.402Z,30.04
2023-03-27T14:10:58.341Z,30.10
2023-03-27T14:13:39.207Z,29.96
2023-03-27T14:16:50.450Z,29.99
2023-03-27T14:19:29.020Z,29.93
2023-03-27T14:22:00.195Z,29.90
2023-03-27T14:24:37.123Z,30.66
2023-03-27T14:27:21.270Z,29.76
2023-03-27T14:29:49.593Z,30.06
2023-03-27T14:32:20.849Z,29.77
2023-03-27T14:34:54.673Z,28.47
2023-03-27T14:37:42.004Z,28.40
2023-03-27T14:40:43.552Z,27.41
2023-03-27T14:43:14.339Z,27.80
2023-03-27T14:45:41.228Z,28.86
2023-03-27T14:48:23.858Z,28.51
2023-03-27T14:50:53.444Z,28.62
2023-03-27T14:53:26.222Z,28.77
2023-03-27T14:56:11.643Z,28.82
2023-03-27T14:58:59.459Z,29.23
2023-03-27T15:01:35.244Z,29.49
2023-03-27T15:04:02.566Z,29.92
2023-03-27T15:06:36.268Z,29.71
2023-03-27T15:09:05.701Z,30.42
2023-03-27T15:11:55.887Z,30.57
2023-03-27T15:14:28.542Z,30.40
2023-03-27T15:17:08.569Z,30.76
2023-03-27T15:19:45.597Z,31.30
2023-03-27T15:22:40.485Z,31.49
2023-03-27T15:25:11.622Z,31.69
2023-03-27T15:27:38.991Z,30.52
2023-03-27T15:30:28.621Z,31.33
2023-03-27T15:32:56.868Z,32.16
2023-03-27T15:35:40.248Z,32.53
2023-03-27T15:38:08.133Z,32.19
2023-03-27T15:40:37.452Z,32.47
2023-03-27T15:43:13.621Z,33.22
2023-03-27T15:45:57.338Z,33.92
2023-03-27T15:48:32.998Z,33.59
2023-03-27T15:51:03.417Z,33.75
2023-03-27T15:53:37.059Z,33.51
2023-03-27T15:56:06.831Z,33.42
2023-03-27T15:58:42.973Z,34.20
2023-03-27T16:01:19.181Z,34.32
2023-03-27T16:03:48.352Z,34.86
2023-03-27T16:06:23.877Z,34.22
2023-03-27T16:08:51.577Z,34.43
2023-03-27T16:11:43.231Z,34.59
2023-03-27T16:14:48.267Z,35.02
2023-03-27T16:17:21.296Z,35.38
2023-03-27T16:19:53.853Z,36.18
2023-03-27T16:22:28.642Z,39.35
2023-03-27T16:24:56.837Z,37.53
2023-03-27T16:27:26.466Z,37.98
2023-03-27T16:29:53.524Z,37.98
2023-03-27T16:32:21.808Z,38.72
2023-03-27T16:34:48.392Z,38.42
2023-03-27T16:37:15.705Z,38.66
2023-03-27T16:39:42.925Z,38.53
2023-03-27T16:42:27.610Z,38.46
2023-03-27T16:44:54.322Z,38.47
2023-03-27T16:47:23.164Z,39.02
2023-03-27T16:50:03.629Z,38.74
2023-03-27T16:52:36.430Z,39.47
2023-03-27T16:55:04.603Z,39.28
2023-03-27T16:57:33.135Z,39.07
2023-03-27T17:00:00.359Z,38.77
2023-03-27T17:02:27.588Z,38.40
2023-03-27T17:04:54.238Z,38.87
2023-03-27T17:07:21.124Z,38.69
2023-03-27T17:09:47.657Z,38.35
2023-03-27T17:12:14.256Z,37.36
2023-03-27T17:14:40.779Z,36.95
2023-03-27T17:17:07.328Z,37.98
2023-03-27T17:19:33.978Z,37.99
2023-03-27T17:22:00.608Z,38.44
2023-03-27T17:24:27.068Z,37.92
2023-03-27T17:26:53.714Z,38.03
2023-03-27T17:29:20.323Z,38.11
2023-03-27T17:31:47.170Z,37.98
2023-03-27T17:34:13.838Z,37.98
2023-03-27T17:36:47.244Z,38.22
2023-03-27T17:39:19.042Z,38.21
2023-03-27T17:41:45.558Z,37.95
2023-03-27T17:44:13.584Z,38.00
2023-03-27T17:46:40.131Z,37.85
2023-03-27T17:49:06.704Z,38.15
2023-03-27T17:51:34.316Z,38.21
2023-03-27T17:54:01.345Z,37.85
2023-03-27T17:56:27.821Z,38.11
2023-03-27T17:58:54.324Z,37.58
2023-03-27T18:01:21.714Z,37.95
2023-03-27T18:03:48.761Z,38.07
2023-03-27T18:06:19.219Z,38.21
2023-03-27T18:08:46.505Z,38.43
2023-03-27T18:11:14.646Z,37.56
2023-03-27T18:13:41.594Z,37.95
2023-03-27T18:16:10.556Z,38.01
2023-03-27T18:18:39.054Z,38.45
2023-03-27T18:21:07.460Z,38.31
2023-03-27T18:23:35.090Z,38.21
2023-03-27T18:26:08.900Z,38.44
2023-03-27T18:28:35.784Z,38.44
2023-03-27T18:31:04.893Z,38.62
2023-03-27T18:33:31.892Z,38.40
2023-03-27T18:35:59.505Z,39.06
2023-03-27T18:38:27.482Z,39.01
2023-03-27T18:40:59.713Z,38.65
2023-03-27T18:43:26.536Z,39.28
2023-03-27T18:45:57.580Z,38.51
2023-03-27T18:48:24.296Z,37.62
2023-03-27T18:50:55.457Z,38.01
2023-03-27T18:53:22.301Z,37.57
2023-03-27T18:55:49.780Z,38.74
2023-03-27T18:58:16.518Z,38.84
2023-03-27T19:00:43.090Z,38.50
2023-03-27T19:03:15.518Z,38.43
2023-03-27T19:05:42.089Z,38.61
2023-03-27T19:08:08.629Z,38.55
2023-03-27T19:10:36.456Z,39.09
2023-03-27T19:13:22.138Z,39.45
2023-03-27T19:16:13.953Z,39.59
2023-03-27T19:19:00.557Z,40.01
2023-03-27T19:21:45.917Z,40.20
2023-03-27T19:24:21.329Z,40.57
2023-03-27T19:26:48.205Z,40.96
2023-03-27T19:29:14.729Z,41.38
2023-03-27T19:31:41.788Z,41.29
2023-03-27T19:34:08.431Z,41.59
2023-03-27T19:36:34.970Z,41.27
2023-03-27T19:39:01.521Z,41.80
2023-03-27T19:41:28.088Z,42.05
2023-03-27T19:43:54.731Z,41.96
2023-03-27T19:46:23.261Z,42.08
2023-03-27T19:48:52.143Z,42.11
2023-03-27T19:51:29.882Z,42.97
2023-03-27T19:53:57.307Z,42.83
2023-03-27T19:56:26.140Z,43.02
2023-03-27T19:58:52.953Z,42.50
2023-03-27T20:01:22.119Z,42.85
2023-03-27T20:03:48.869Z,43.08
2023-03-27T20:06:18.963Z,43.22
2023-03-27T20:08:45.649Z,43.45
2023-03-27T20:11:14.735Z,44.01
2023-03-27T20:13:53.087Z,44.13
2023-03-27T20:16:23.454Z,44.92
2023-03-27T20:18:55.406Z,43.36
2023-03-27T20:21:25.629Z,43.79
2023-03-27T20:23:55.665Z,44.06
2023-03-27T20:26:39.288Z,44.25
2023-03-27T20:29:21.622Z,44.80
2023-03-27T20:31:48.554Z,45.25
2023-03-27T20:34:19.158Z,44.90
2023-03-27T20:36:45.920Z,44.86
2023-03-27T20:39:33.647Z,45.03
2023-03-27T20:42:00.265Z,44.53
2023-03-27T20:44:40.159Z,45.12
2023-03-27T20:47:13.179Z,45.42
2023-03-27T20:49:43.842Z,44.02
2023-03-27T20:52:13.244Z,44.56
2023-03-27T20:54:39.776Z,44.19
2023-03-27T20:57:09.154Z,44.41
2023-03-27T20:59:35.863Z,44.11
2023-03-27T21:02:02.738Z,44.55
2023-03-27T21:04:31.479Z,44.18
2023-03-27T21:06:58.220Z,43.79
2023-03-27T21:09:26.100Z,44.39
2023-03-27T21:11:55.152Z,45.36
2023-03-27T21:14:22.170Z,45.17
2023-03-27T21:16:48.775Z,45.39
2023-03-27T21:19:15.918Z,45.33
2023-03-27T21:21:42.980Z,45.10
2023-03-27T21:24:09.599Z,44.98
2023-03-27T21:26:36.162Z,45.28
2023-03-27T21:29:03.371Z,45.19
2023-03-27T21:31:30.316Z,45.92
2023-03-27T21:33:56.877Z,46.06
2023-03-27T21:36:23.627Z,46.63
2023-03-27T21:38:50.411Z,47.02
2023-03-27T21:41:17.194Z,47.53
2023-03-27T21:43:43.727Z,46.73
2023-03-27T21:46:10.589Z,46.87
2023-03-27T21:48:37.147Z,46.51
2023-03-27T21:51:05.376Z,45.33
2023-03-27T21:53:31.873Z,45.97
2023-03-27T21:55:58.800Z,46.07
2023-03-27T21:58:25.786Z,45.49
2023-03-27T22:00:54.758Z,45.48
2023-03-27T22:03:21.300Z,45.57
2023-03-27T22:05:57.292Z,45.79
2023-03-27T22:08:27.924Z,45.73
2023-03-27T22:10:58.346Z,46.16
2023-03-27T22:13:24.871Z,46.59
2023-03-27T22:15:51.748Z,46.30
2023-03-27T22:18:18.365Z,45.85
2023-03-27T22:20:44.877Z,46.50
2023-03-27T22:23:11.367Z,46.05
2023-03-27T22:25:37.864Z,46.48
2023-03-27T22:28:04.420Z,46.21
2023-03-27T22:30:31.516Z,46.61
2023-03-27T22:32:58.068Z,45.84
2023-03-27T22:35:24.678Z,46.45
2023-03-27T22:37:51.232Z,47.01
2023-03-27T22:40:17.902Z,46.50
2023-03-27T22:42:44.454Z,46.08
2023-03-27T22:45:11.376Z,47.14
2023-03-27T22:47:37.944Z,46.29
2023-03-27T22:50:06.432Z,46.29
2023-03-27T22:52:33.220Z,45.72
2023-03-27T22:54:59.856Z,45.83
2023-03-27T22:57:26.445Z,46.38
2023-03-27T22:59:53.776Z,45.48
2023-03-27T23:02:20.769Z,44.97
2023-03-27T23:04:47.287Z,45.42
2023-03-27T23:07:13.774Z,44.75
2023-03-27T23:09:40.351Z,45.36
2023-03-27T23:12:06.906Z,45.68
2023-03-27T23:14:33.376Z,45.28
2023-03-27T23:17:00.692Z,44.67
2023-03-27T23:19:27.172Z,44.59
2023-03-27T23:21:53.668Z,44.05
2023-03-27T23:24:20.188Z,43.92
2023-03-27T23:26:46.708Z,44.65
2023-03-27T23:29:13.170Z,44.25
2023-03-27T23:31:39.743Z,44.52
2023-03-27T23:34:06.247Z,43.86
2023-03-27T23:36:32.778Z,44.48
2023-03-27T23:38:59.281Z,43.72
2023-03-27T23:41:25.784Z,44.86
2023-03-27T23:43:53.862Z,44.47
2023-03-27T23:46:20.413Z,45.16
2023-03-27T23:48:46.969Z,44.74
2023-03-27T23:51:15.019Z,44.73
2023-03-27T23:53:41.930Z,44.56
2023-03-27T23:56:08.972Z,43.90
2023-03-27T23:58:37.088Z,43.90
